createdAt,value
2018-09-26T00:00:11.152Z,66.11
2018-09-26T00:01:20.990Z,66.21
2018-09-26T00:02:31.163Z,66.02
2018-09-26T00:03:41.279Z,66.11
2018-09-26T00:04:51.382Z,66.11
2018-09-26T00:06:01.494Z,65.26
2018-09-26T00:07:11.602Z,66.11
2018-09-26T00:08:21.445Z,65.92
2018-09-26T00:09:31.281Z,66.21
2018-09-26T00:10:41.392Z,66.11
2018-09-26T00:11:51.504Z,66.21
2018-09-26T00:13:01.615Z,66.11
2018-09-26T00:14:11.274Z,66.4
2018-09-26T00:15:21.379Z,66.11
2018-09-26T00:16:31.215Z,66.5
2018-09-26T00:17:41.059Z,66.02
2018-09-26T00:18:51.231Z,66.4
2018-09-26T00:20:01.122Z,65.92
2018-09-26T00:21:11.225Z,66.4
2018-09-26T00:22:21.057Z,65.83
2018-09-26T00:23:31.163Z,66.02
2018-09-26T00:24:41.001Z,66.21
2018-09-26T00:25:51.159Z,66.02
2018-09-26T00:27:00.988Z,66.21
2018-09-26T00:28:11.105Z,66.78
2018-09-26T00:29:20.943Z,66.11
2018-09-26T00:30:30.504Z,66.11
2018-09-26T00:31:40.390Z,66.11
2018-09-26T00:32:50.226Z,65.92
2018-09-26T00:33:59.789Z,65.51
2018-09-26T00:35:09.902Z,66.02
2018-09-26T00:36:20.289Z,65.45
2018-09-26T00:37:30.188Z,66.21
2018-09-26T00:38:40.422Z,65.73
2018-09-26T00:39:50.528Z,66.11
2018-09-26T00:41:00.636Z,66.4
2018-09-26T00:42:10.751Z,66.46
2018-09-26T00:43:20.906Z,65.83
2018-09-26T00:44:30.472Z,66.27
2018-09-26T00:45:40.305Z,66.02
2018-09-26T00:46:50.410Z,65.73
2018-09-26T00:48:00.521Z,66.46
2018-09-26T00:49:12.093Z,66.18
2018-09-26T00:50:22.198Z,65.92
2018-09-26T00:51:32.033Z,66.59
2018-09-26T00:52:41.866Z,66.21
2018-09-26T00:53:52.053Z,66.37
2018-09-26T00:55:01.667Z,66.08
2018-09-26T00:56:11.776Z,66.37
2018-09-26T00:57:21.886Z,65.99
2018-09-26T00:58:31.997Z,66.37
2018-09-26T00:59:41.827Z,66.21
2018-09-26T01:00:51.495Z,66.4
2018-09-26T01:02:01.331Z,66.21
2018-09-26T01:03:10.888Z,66.18
2018-09-26T01:04:20.725Z,66.18
2018-09-26T01:05:30.557Z,66.08
2018-09-26T01:06:40.668Z,66.69
2018-09-26T01:07:50.776Z,66.37
2018-09-26T01:09:00.898Z,66.75
2018-09-26T01:10:10.459Z,66.56
2018-09-26T01:11:20.573Z,66.46
2018-09-26T01:12:30.460Z,66.94
2018-09-26T01:13:40.578Z,66.66
2018-09-26T01:14:50.414Z,66.56
2018-09-26T01:16:00.536Z,66.66
2018-09-26T01:17:10.371Z,66.85
2018-09-26T01:18:20.476Z,66.66
2018-09-26T01:19:30.593Z,67.8
2018-09-26T01:20:40.426Z,67.32
2018-09-26T01:21:50.535Z,67.13
2018-09-26T01:23:00.645Z,67.61
2018-09-26T01:24:10.802Z,67.13
2018-09-26T01:25:20.364Z,67.41
2018-09-26T01:26:30.475Z,67.03
2018-09-26T01:27:40.582Z,67.61
2018-09-26T01:28:50.413Z,67.7
2018-09-26T01:30:00.247Z,67.99
2018-09-26T01:31:10.359Z,67.7
2018-09-26T01:32:19.923Z,67.41
2018-09-26T01:33:30.027Z,67.41
2018-09-26T01:34:40.198Z,67.83
2018-09-26T01:35:50.128Z,67.99
2018-09-26T01:36:59.960Z,67.8
2018-09-26T01:38:09.805Z,67.61
2018-09-26T01:39:19.913Z,68.12
2018-09-26T01:40:29.759Z,68.84
2018-09-26T01:41:39.598Z,68.65
2018-09-26T01:42:49.704Z,69.04
2018-09-26T01:43:59.537Z,68.75
2018-09-26T01:45:09.372Z,68.84
2018-09-26T01:46:18.987Z,69.13
2018-09-26T01:47:29.201Z,68.75
2018-09-26T01:48:39.036Z,68.84
2018-09-26T01:49:49.146Z,68.75
2018-09-26T01:50:59.251Z,68.65
2018-09-26T01:52:09.089Z,68.65
2018-09-26T01:53:19.243Z,68.75
2018-09-26T01:54:29.350Z,69.04
2018-09-26T01:55:39.184Z,68.78
2018-09-26T01:56:49.019Z,69.35
2018-09-26T01:57:59.136Z,69.45
2018-09-26T01:59:09.295Z,69.17
2018-09-26T02:00:19.408Z,69.35
2018-09-26T02:01:28.970Z,70.02
2018-09-26T02:02:39.086Z,69.17
2018-09-26T02:03:49.204Z,69.45
2018-09-26T02:04:59.323Z,70.02
2018-09-26T02:06:09.443Z,69.45
2018-09-26T02:07:19.281Z,69.54
2018-09-26T02:08:29.388Z,69.64
2018-09-26T02:09:39.228Z,69.83
2018-09-26T02:10:49.383Z,69.64
2018-09-26T02:11:59.218Z,69.83
2018-09-26T02:13:08.515Z,70.5
2018-09-26T02:14:18.622Z,70.12
2018-09-26T02:15:28.456Z,70.5
2018-09-26T02:16:38.339Z,70.5
2018-09-26T02:17:48.453Z,70.5
2018-09-26T02:18:58.555Z,70.5
2018-09-26T02:20:08.670Z,70.21
2018-09-26T02:21:17.957Z,70.4
2018-09-26T02:22:28.061Z,70.69
2018-09-26T02:23:38.191Z,70.78
2018-09-26T02:24:48.686Z,71.17
2018-09-26T02:25:58.518Z,70.88
2018-09-26T02:27:08.626Z,71.07
2018-09-26T02:28:18.781Z,70.69
2018-09-26T02:29:28.886Z,70.88
2018-09-26T02:30:38.998Z,70.97
2018-09-26T02:31:49.110Z,70.88
2018-09-26T02:32:58.413Z,71.17
2018-09-26T02:34:08.024Z,70.97
2018-09-26T02:35:18.136Z,71.55
2018-09-26T02:36:27.980Z,71.45
2018-09-26T02:37:37.812Z,72.02
2018-09-26T02:38:47.922Z,72.02
2018-09-26T02:39:58.038Z,71.64
2018-09-26T02:41:08.146Z,71.55
2018-09-26T02:42:17.432Z,71.64
2018-09-26T02:43:27.264Z,72.02
2018-09-26T02:44:37.370Z,71.64
2018-09-26T02:45:47.481Z,71.83
2018-09-26T02:46:57.588Z,72.12
2018-09-26T02:48:07.461Z,72.21
2018-09-26T02:49:17.574Z,71.83
2018-09-26T02:50:27.428Z,72.31
2018-09-26T02:51:36.988Z,72.41
2018-09-26T02:52:47.099Z,72.31
2018-09-26T02:53:57.207Z,72.6
2018-09-26T02:55:06.500Z,72.78
2018-09-26T02:56:15.801Z,72.69
2018-09-26T02:57:25.692Z,72.78
2018-09-26T02:58:35.797Z,73.26
2018-09-26T02:59:45.360Z,72.97
2018-09-26T03:00:55.477Z,72.69
2018-09-26T03:02:05.329Z,73.45
2018-09-26T03:03:15.265Z,73.45
2018-09-26T03:04:25.374Z,73.45
2018-09-26T03:05:34.953Z,73.93
2018-09-26T03:06:45.064Z,72.97
2018-09-26T03:07:55.174Z,73.36
2018-09-26T03:09:05.332Z,73.26
2018-09-26T03:10:15.172Z,73.93
2018-09-26T03:11:25.282Z,73.74
2018-09-26T03:12:35.397Z,74.31
2018-09-26T03:13:45.507Z,74.5
2018-09-26T03:14:55.120Z,74.12
2018-09-26T03:16:04.958Z,74.12
2018-09-26T03:17:14.793Z,75.16
2018-09-26T03:18:24.378Z,75.16
2018-09-26T03:19:34.217Z,74.79
2018-09-26T03:20:44.047Z,74.88
2018-09-26T03:21:54.162Z,74.79
2018-09-26T03:23:04.000Z,75.23
2018-09-26T03:24:13.567Z,75.42
2018-09-26T03:25:23.683Z,75.7
2018-09-26T03:26:33.570Z,75.6
2018-09-26T03:27:43.416Z,75.13
2018-09-26T03:28:53.525Z,75.42
2018-09-26T03:30:03.367Z,75.32
2018-09-26T03:31:13.518Z,74.98
2018-09-26T03:32:23.644Z,75.74
2018-09-26T03:33:33.860Z,75.64
2018-09-26T03:34:43.765Z,75.79
2018-09-26T03:35:53.604Z,75.93
2018-09-26T03:37:03.712Z,75.99
2018-09-26T03:38:13.828Z,76.84
2018-09-26T03:39:23.680Z,76.65
2018-09-26T03:40:33.516Z,75.79
2018-09-26T03:41:43.647Z,75.79
2018-09-26T03:42:53.761Z,75.99
2018-09-26T03:44:03.646Z,77.03
2018-09-26T03:45:13.759Z,76.84
2018-09-26T03:46:23.609Z,76.75
2018-09-26T03:47:33.726Z,77.22
2018-09-26T03:48:43.630Z,76.65
2018-09-26T03:49:53.456Z,76.94
2018-09-26T03:51:03.290Z,77.13
2018-09-26T03:52:13.125Z,77.42
2018-09-26T03:53:23.242Z,77.51
2018-09-26T03:54:33.366Z,77.42
2018-09-26T03:55:43.294Z,77.8
2018-09-26T03:56:53.426Z,77.8
2018-09-26T03:58:03.566Z,77.8
2018-09-26T03:59:12.879Z,78.08
2018-09-26T04:00:23.017Z,77.8
2018-09-26T04:01:33.201Z,78.17
2018-09-26T04:02:43.338Z,78.56
2018-09-26T04:03:53.475Z,78.65
2018-09-26T04:05:03.284Z,79.41
2018-09-26T04:06:13.076Z,79.32
2018-09-26T04:07:22.940Z,79.7
2018-09-26T04:08:32.802Z,79.89
2018-09-26T04:09:42.934Z,79.51
2018-09-26T04:10:53.073Z,79.7
2018-09-26T04:12:03.212Z,79.7
2018-09-26T04:13:13.370Z,79.03
2018-09-26T04:14:23.600Z,79.51
2018-09-26T04:15:33.893Z,78.94
2018-09-26T04:16:44.461Z,79.99
2018-09-26T04:17:54.043Z,79.51
2018-09-26T04:19:04.240Z,79.7
2018-09-26T04:20:14.485Z,79.41
2018-09-26T04:21:24.877Z,79.51
2018-09-26T04:22:35.021Z,79.89
2018-09-26T04:23:45.167Z,79.7
2018-09-26T04:24:55.320Z,79.99
2018-09-26T04:26:05.212Z,80.18
2018-09-26T04:27:15.459Z,80.36
2018-09-26T04:28:25.480Z,80.65
2018-09-26T04:29:35.518Z,80.46
2018-09-26T04:30:45.616Z,80.36
2018-09-26T04:31:55.224Z,80.84
2018-09-26T04:33:04.985Z,80.65
2018-09-26T04:34:16.105Z,80.75
2018-09-26T04:35:25.962Z,81.41
2018-09-26T04:36:35.551Z,81.13
2018-09-26T04:37:45.685Z,81.23
2018-09-26T04:38:55.890Z,81.6
2018-09-26T04:40:06.001Z,81.32
2018-09-26T04:41:16.137Z,80.75
2018-09-26T04:42:26.332Z,81.03
2018-09-26T04:43:36.466Z,81.32
2018-09-26T04:44:46.604Z,81.23
2018-09-26T04:45:56.199Z,81.32
2018-09-26T04:47:06.339Z,81.7
2018-09-26T04:48:16.245Z,81.89
2018-09-26T04:49:26.098Z,81.7
2018-09-26T04:50:36.228Z,82.37
2018-09-26T04:51:46.500Z,81.98
2018-09-26T04:52:55.808Z,82.27
2018-09-26T04:54:05.214Z,82.08
2018-09-26T04:55:15.343Z,82.37
2018-09-26T04:56:25.207Z,82.46
2018-09-26T04:57:35.378Z,82.46
2018-09-26T04:58:45.633Z,82.75
2018-09-26T04:59:55.547Z,82.37
2018-09-26T05:01:05.408Z,81.98
2018-09-26T05:02:15.266Z,82.65
2018-09-26T05:03:24.848Z,82.18
2018-09-26T05:04:34.706Z,82.75
2018-09-26T05:05:44.618Z,83.03
2018-09-26T05:06:54.746Z,82.75
2018-09-26T05:08:04.055Z,82.84
2018-09-26T05:09:14.274Z,82.27
2018-09-26T05:10:24.131Z,83.03
2018-09-26T05:11:33.768Z,82.84
2018-09-26T05:12:43.623Z,83.03
2018-09-26T05:13:53.757Z,82.84
2018-09-26T05:15:03.617Z,83.13
2018-09-26T05:16:13.748Z,83.32
2018-09-26T05:17:23.990Z,83.51
2018-09-26T05:18:34.123Z,83.41
2018-09-26T05:19:43.986Z,83.32
2018-09-26T05:20:53.565Z,83.41
2018-09-26T05:22:02.874Z,83.61
2018-09-26T05:23:11.978Z,83.41
2018-09-26T05:24:22.398Z,83.32
2018-09-26T05:25:32.532Z,83.41
2018-09-26T05:26:42.389Z,83.32
2018-09-26T05:27:52.522Z,83.7
2018-09-26T05:29:02.438Z,83.51
2018-09-26T05:30:12.646Z,83.8
2018-09-26T05:31:22.993Z,83.61
2018-09-26T05:32:33.132Z,83.61
2018-09-26T05:33:42.723Z,83.51
2018-09-26T05:34:52.632Z,83.41
2018-09-26T05:36:02.767Z,83.51
2018-09-26T05:37:12.627Z,83.8
2018-09-26T05:38:22.762Z,83.22
2018-09-26T05:39:32.892Z,83.41
2018-09-26T05:40:43.075Z,83.13
2018-09-26T05:41:53.509Z,84.08
2018-09-26T05:43:03.666Z,83.61
2018-09-26T05:44:13.538Z,83.41
2018-09-26T05:45:23.724Z,84.27
2018-09-26T05:46:33.637Z,83.8
2018-09-26T05:47:43.506Z,83.89
2018-09-26T05:48:53.367Z,84.17
2018-09-26T05:50:03.531Z,83.98
2018-09-26T05:51:13.566Z,84.17
2018-09-26T05:52:23.817Z,83.98
2018-09-26T05:53:33.791Z,84.17
2018-09-26T05:54:43.855Z,83.98
2018-09-26T05:55:53.717Z,83.98
2018-09-26T05:57:03.855Z,83.98
2018-09-26T05:58:13.487Z,84.08
2018-09-26T05:59:23.347Z,83.51
2018-09-26T06:00:33.556Z,84.08
2018-09-26T06:01:43.687Z,83.84
2018-09-26T06:02:53.829Z,83.98
2018-09-26T06:04:04.016Z,84.17
2018-09-26T06:05:14.157Z,84.65
2018-09-26T06:06:24.446Z,84.56
2018-09-26T06:07:34.029Z,84.08
2018-09-26T06:08:44.168Z,84.27
2018-09-26T06:09:54.348Z,84.08
2018-09-26T06:11:03.931Z,84.46
2018-09-26T06:12:13.792Z,84.88
2018-09-26T06:13:23.708Z,84.41
2018-09-26T06:14:33.582Z,84.56
2018-09-26T06:15:43.214Z,84.36
2018-09-26T06:16:53.350Z,83.98
2018-09-26T06:18:03.255Z,83.89
2018-09-26T06:19:13.403Z,84.46
2018-09-26T06:20:23.262Z,84.46
2018-09-26T06:21:32.893Z,84.79
2018-09-26T06:22:43.024Z,84.56
2018-09-26T06:23:53.158Z,84.41
2018-09-26T06:25:03.289Z,84.6
2018-09-26T06:26:13.163Z,84.6
2018-09-26T06:27:23.113Z,84.6
2018-09-26T06:28:33.266Z,84.5
2018-09-26T06:29:42.851Z,85.17
2018-09-26T06:30:53.036Z,85.08
2018-09-26T06:32:03.167Z,84.79
2018-09-26T06:33:13.081Z,85.22
2018-09-26T06:34:22.945Z,85.03
2018-09-26T06:35:32.806Z,85.36
2018-09-26T06:36:42.669Z,85.17
2018-09-26T06:37:52.800Z,85.08
2018-09-26T06:39:02.382Z,85.17
2018-09-26T06:40:12.297Z,85.74
2018-09-26T06:41:22.543Z,85.36
2018-09-26T06:42:32.458Z,85.36
2018-09-26T06:43:42.288Z,85.27
2018-09-26T06:44:52.668Z,84.98
2018-09-26T06:46:02.799Z,84.31
2018-09-26T06:47:12.668Z,84.6
2018-09-26T06:48:22.615Z,84.5
2018-09-26T06:49:32.223Z,84.79
2018-09-26T06:50:42.147Z,85.17
2018-09-26T06:51:52.008Z,84.41
2018-09-26T06:53:01.885Z,84.88
2018-09-26T06:54:11.615Z,84.22
2018-09-26T06:55:21.484Z,84.03
2018-09-26T06:56:31.664Z,84.31
2018-09-26T06:57:41.808Z,84.03
2018-09-26T06:58:51.949Z,83.26
2018-09-26T07:00:01.817Z,83.45
2018-09-26T07:01:11.497Z,83.21
2018-09-26T07:02:21.089Z,83.5
2018-09-26T07:03:31.223Z,83.02
2018-09-26T07:04:41.359Z,83.59
2018-09-26T07:05:50.951Z,82.83
2018-09-26T07:07:00.808Z,83.02
2018-09-26T07:08:10.988Z,83.02
2018-09-26T07:09:21.124Z,82.07
2018-09-26T07:10:30.980Z,82.11
2018-09-26T07:11:40.841Z,82.3
2018-09-26T07:12:50.976Z,81.73
2018-09-26T07:14:00.557Z,81.73
2018-09-26T07:15:10.702Z,81.63
2018-09-26T07:16:20.565Z,81.73
2018-09-26T07:17:30.429Z,81.06
2018-09-26T07:18:40.290Z,81.44
2018-09-26T07:19:49.927Z,81.15
2018-09-26T07:21:00.059Z,81.35
2018-09-26T07:22:09.929Z,81.25
2018-09-26T07:23:20.068Z,81.25
2018-09-26T07:24:29.924Z,80.77
2018-09-26T07:25:40.124Z,81.06
2018-09-26T07:26:50.263Z,80.81
2018-09-26T07:28:00.131Z,80.62
2018-09-26T07:29:09.714Z,81.01
2018-09-26T07:30:19.844Z,80.53
2018-09-26T07:31:29.679Z,80.72
2018-09-26T07:32:40.244Z,81.1
2018-09-26T07:33:50.384Z,80.72
2018-09-26T07:34:59.693Z,80.81
2018-09-26T07:36:09.832Z,80.62
2018-09-26T07:37:19.743Z,80.53
2018-09-26T07:38:30.050Z,80.33
2018-09-26T07:39:40.550Z,80.91
2018-09-26T07:40:50.680Z,80.53
2018-09-26T07:42:00.262Z,79.96
2018-09-26T07:43:10.451Z,80.33
2018-09-26T07:44:20.317Z,80.43
2018-09-26T07:45:30.453Z,79.96
2018-09-26T07:46:41.171Z,80.33
2018-09-26T07:47:51.029Z,80.24
2018-09-26T07:49:01.216Z,80.62
2018-09-26T07:50:11.084Z,80.33
2018-09-26T07:51:21.219Z,79.67
2018-09-26T07:52:31.080Z,79.8
2018-09-26T07:53:40.948Z,79.8
2018-09-26T07:54:50.808Z,79.71
2018-09-26T07:56:00.667Z,79.43
2018-09-26T07:57:10.524Z,79.43
2018-09-26T07:58:20.661Z,79.04
2018-09-26T07:59:30.524Z,79.23
2018-09-26T08:00:40.164Z,78.56
2018-09-26T08:01:50.030Z,78.47
2018-09-26T08:02:59.919Z,78.47
2018-09-26T08:04:09.789Z,78.85
2018-09-26T08:05:19.928Z,78.03
2018-09-26T08:06:29.840Z,78.7
2018-09-26T08:07:39.704Z,78.79
2018-09-26T08:08:49.562Z,78.6
2018-09-26T08:09:59.418Z,77.84
2018-09-26T08:11:09.005Z,77.74
2018-09-26T08:12:19.113Z,77.94
2018-09-26T08:13:29.254Z,77.94
2018-09-26T08:14:38.853Z,77.84
2018-09-26T08:15:49.009Z,77.55
2018-09-26T08:16:58.870Z,77.65
2018-09-26T08:18:08.530Z,77.94
2018-09-26T08:19:19.066Z,77.84
2018-09-26T08:20:28.927Z,78.03
2018-09-26T08:21:38.790Z,77.84
2018-09-26T08:22:48.928Z,77.3
2018-09-26T08:23:59.400Z,77.78
2018-09-26T08:25:09.836Z,77.4
2018-09-26T08:26:19.972Z,77.11
2018-09-26T08:27:29.837Z,76.06
2018-09-26T08:28:39.436Z,76.54
2018-09-26T08:29:49.729Z,76.48
2018-09-26T08:31:00.119Z,76.29
2018-09-26T08:32:10.259Z,76.1
2018-09-26T08:33:20.118Z,76.2
2018-09-26T08:34:30.257Z,76.1
2018-09-26T08:35:40.122Z,75.91
2018-09-26T08:36:49.983Z,75.24
2018-09-26T08:38:00.135Z,75.34
2018-09-26T08:39:09.999Z,76.1
2018-09-26T08:40:19.589Z,76.29
2018-09-26T08:41:29.454Z,75.52
2018-09-26T08:42:39.038Z,74.57
2018-09-26T08:43:49.280Z,74.61
2018-09-26T08:44:59.297Z,75.76
2018-09-26T08:46:09.157Z,74.61
2018-09-26T08:47:19.298Z,74.99
2018-09-26T08:48:29.158Z,74.32
2018-09-26T08:49:39.300Z,73.55
2018-09-26T08:50:49.433Z,73.75
2018-09-26T08:51:59.568Z,73.65
2018-09-26T08:53:09.429Z,74.22
2018-09-26T08:54:19.306Z,73.46
2018-09-26T08:55:28.890Z,73.46
2018-09-26T08:56:38.751Z,72.79
2018-09-26T08:57:48.888Z,73.94
2018-09-26T08:58:59.027Z,73.97
2018-09-26T09:00:09.163Z,73.88
2018-09-26T09:01:18.753Z,74.16
2018-09-26T09:02:28.891Z,74.07
2018-09-26T09:03:38.477Z,73.65
2018-09-26T09:04:48.355Z,73.79
2018-09-26T09:05:58.228Z,72.83
2018-09-26T09:07:08.440Z,73.5
2018-09-26T09:08:17.752Z,72.5
2018-09-26T09:09:27.067Z,72.34
2018-09-26T09:10:36.929Z,72.54
2018-09-26T09:11:46.710Z,72.63
2018-09-26T09:12:56.335Z,72.92
2018-09-26T09:14:06.474Z,73.02
2018-09-26T09:15:16.932Z,72.44
2018-09-26T09:16:26.844Z,72.73
2018-09-26T09:17:36.775Z,73.05
2018-09-26T09:18:47.102Z,72.09
2018-09-26T09:19:56.987Z,72.48
2018-09-26T09:21:07.134Z,71.23
2018-09-26T09:22:16.722Z,70.85
2018-09-26T09:23:26.860Z,70.21
2018-09-26T09:24:37.014Z,69.17
2018-09-26T09:25:46.878Z,69.74
2018-09-26T09:26:56.707Z,69.83
2018-09-26T09:28:06.528Z,69.07
2018-09-26T09:29:15.765Z,69.26
2018-09-26T09:30:25.542Z,69.26
2018-09-26T09:31:35.587Z,69.07
2018-09-26T09:32:45.094Z,68.52
2018-09-26T09:33:55.136Z,68.11
2018-09-26T09:35:04.669Z,67.72
2018-09-26T09:36:14.532Z,67.72
2018-09-26T09:37:24.428Z,68.49
2018-09-26T09:38:34.298Z,68.87
2018-09-26T09:39:43.891Z,68.49
2018-09-26T09:40:54.031Z,68.97
2018-09-26T09:42:03.897Z,68.97
2018-09-26T09:43:13.757Z,69.54
2018-09-26T09:44:23.512Z,69.07
2018-09-26T09:45:34.093Z,70.12
2018-09-26T09:46:44.231Z,69.74
2018-09-26T09:47:53.787Z,69.83
2018-09-26T09:49:03.570Z,69.93
2018-09-26T09:50:13.151Z,70.03
2018-09-26T09:51:23.188Z,69.54
2018-09-26T09:52:32.755Z,69.74
2018-09-26T09:53:42.528Z,70.12
2018-09-26T09:54:52.562Z,70.09
2018-09-26T09:56:02.598Z,69.7
2018-09-26T09:57:12.766Z,69.8
2018-09-26T09:58:22.807Z,69.8
2018-09-26T09:59:32.846Z,69.89
2018-09-26T10:00:42.615Z,70.95
2018-09-26T10:01:52.662Z,70.95
2018-09-26T10:03:03.149Z,71.33
2018-09-26T10:04:14.082Z,71.42
2018-09-26T10:05:24.137Z,71.23
2018-09-26T10:06:34.173Z,71.52
2018-09-26T10:07:43.948Z,71.52
2018-09-26T10:08:54.187Z,71.04
2018-09-26T10:10:04.191Z,70.95
2018-09-26T10:11:14.225Z,71.04
2018-09-26T10:12:23.990Z,70.05
2018-09-26T10:13:34.027Z,70.34
2018-09-26T10:14:43.794Z,69.8
2018-09-26T10:15:53.838Z,69.32
2018-09-26T10:17:03.874Z,69.51
2018-09-26T10:18:13.371Z,67.5
2018-09-26T10:19:23.135Z,66.61
2018-09-26T10:20:33.176Z,65.39
2018-09-26T10:21:42.940Z,64.92
2018-09-26T10:22:52.715Z,64.25
2018-09-26T10:24:02.745Z,62.74
2018-09-26T10:25:13.008Z,60.44
2018-09-26T10:26:23.248Z,59.3
2018-09-26T10:27:33.217Z,58.91
2018-09-26T10:28:42.714Z,58.72
2018-09-26T10:29:52.488Z,58.62
2018-09-26T10:31:02.252Z,57.38
2018-09-26T10:32:11.537Z,58.08
2018-09-26T10:33:21.582Z,57.89
2018-09-26T10:34:31.350Z,56.16
2018-09-26T10:35:41.389Z,54.53
2018-09-26T10:36:51.176Z,54.63
2018-09-26T10:38:00.950Z,54.34
2018-09-26T10:39:10.768Z,53.86
2018-09-26T10:40:20.531Z,52.42
2018-09-26T10:41:29.762Z,51.97
2018-09-26T10:42:39.532Z,51.1
2018-09-26T10:43:49.569Z,50.15
2018-09-26T10:44:59.071Z,49.48
2018-09-26T10:46:08.570Z,50.73
2018-09-26T10:47:18.610Z,50.05
2018-09-26T10:48:28.376Z,49.57
2018-09-26T10:49:38.148Z,49.1
2018-09-26T10:50:47.956Z,49.76
2018-09-26T10:51:57.721Z,49.1
2018-09-26T10:53:07.224Z,48.52
2018-09-26T10:54:16.998Z,47.56
2018-09-26T10:55:26.768Z,46.7
2018-09-26T10:56:37.236Z,46.5
2018-09-26T10:57:47.358Z,45.47
2018-09-26T10:58:57.396Z,43.65
2018-09-26T11:00:07.175Z,44.61
2018-09-26T11:01:16.945Z,43.67
2018-09-26T11:02:26.879Z,43.48
2018-09-26T11:03:37.294Z,42.71
2018-09-26T11:04:47.073Z,42.52
2018-09-26T11:05:56.575Z,41.66
2018-09-26T11:07:06.370Z,40.99
2018-09-26T11:08:16.484Z,40.89
2018-09-26T11:09:26.657Z,41.37
2018-09-26T11:10:36.427Z,42.33
2018-09-26T11:11:46.464Z,43.07
2018-09-26T11:12:56.243Z,42.6
2018-09-26T11:14:05.491Z,42.4
2018-09-26T11:15:15.405Z,42.9
2018-09-26T11:16:25.540Z,41.56
2018-09-26T11:17:35.816Z,40.7
2018-09-26T11:18:46.053Z,40.7
2018-09-26T11:19:56.414Z,40.79
2018-09-26T11:21:06.278Z,39.73
2018-09-26T11:22:16.777Z,39.45
2018-09-26T11:23:26.196Z,39.64
2018-09-26T11:24:36.237Z,39.35
2018-09-26T11:25:46.278Z,38.68
2018-09-26T11:26:56.315Z,37.91
2018-09-26T11:28:05.864Z,37.55
2018-09-26T11:29:15.714Z,37.64
2018-09-26T11:30:25.489Z,37.26
2018-09-26T11:31:35.531Z,38.32
2018-09-26T11:32:45.579Z,37.74
2018-09-26T11:33:55.085Z,37.66
2018-09-26T11:35:04.932Z,38.81
2018-09-26T11:36:14.438Z,37.57
2018-09-26T11:37:24.487Z,36.7
2018-09-26T11:38:34.527Z,36.8
2018-09-26T11:39:44.304Z,36.99
2018-09-26T11:40:54.072Z,36.49
2018-09-26T11:42:03.856Z,37.07
2018-09-26T11:43:13.900Z,36.78
2018-09-26T11:44:24.145Z,36.8
2018-09-26T11:45:34.174Z,36.51
2018-09-26T11:46:43.946Z,36.13
2018-09-26T11:47:53.724Z,36.03
2018-09-26T11:49:03.792Z,34.99
2018-09-26T11:50:14.001Z,34.41
2018-09-26T11:51:23.668Z,34.7
2018-09-26T11:52:33.495Z,34.88
2018-09-26T11:53:43.695Z,34.2
2018-09-26T11:54:53.873Z,34.39
2018-09-26T11:56:04.179Z,35.36
2018-09-26T11:57:14.375Z,36.24
2018-09-26T11:58:24.460Z,36.24
2018-09-26T11:59:34.905Z,36.51
2018-09-26T12:00:44.774Z,36.78
2018-09-26T12:01:54.918Z,36.4
2018-09-26T12:03:04.848Z,36.66
2018-09-26T12:04:15.027Z,36.76
2018-09-26T12:05:25.641Z,37.34
2018-09-26T12:06:35.785Z,37.24
2018-09-26T12:07:45.943Z,37.15
2018-09-26T12:08:55.823Z,37.7
2018-09-26T12:10:06.050Z,38.18
2018-09-26T12:11:16.118Z,38.37
2018-09-26T12:12:26.366Z,38.1
2018-09-26T12:13:36.243Z,37.05
2018-09-26T12:14:46.563Z,38.01
2018-09-26T12:15:56.429Z,38.01
2018-09-26T12:17:06.591Z,37.53
2018-09-26T12:18:16.615Z,38.2
2018-09-26T12:19:27.158Z,38.01
2018-09-26T12:20:37.110Z,36.68
2018-09-26T12:21:47.132Z,36.41
2018-09-26T12:22:57.664Z,36.51
2018-09-26T12:24:07.016Z,35.76
2018-09-26T12:25:17.602Z,35.58
2018-09-26T12:26:28.200Z,35.41
2018-09-26T12:27:38.354Z,34.74
2018-09-26T12:28:48.786Z,34.25
2018-09-26T12:29:58.657Z,33.12
2018-09-26T12:31:08.565Z,33.12
2018-09-26T12:32:18.433Z,33.02
2018-09-26T12:33:28.585Z,32.75
2018-09-26T12:34:38.285Z,34.56
2018-09-26T12:35:47.939Z,32.46
2018-09-26T12:36:58.087Z,32.17
2018-09-26T12:38:08.240Z,32.36
2018-09-26T12:39:18.115Z,32.84
2018-09-26T12:40:28.455Z,32.56
2018-09-26T12:41:38.055Z,33.03
2018-09-26T12:42:47.688Z,32.17
2018-09-26T12:43:57.913Z,32.07
2018-09-26T12:45:08.069Z,32.86
2018-09-26T12:46:18.376Z,32.57
2018-09-26T12:47:29.188Z,33.53
2018-09-26T12:48:39.586Z,32.67
2018-09-26T12:49:49.466Z,32.76
2018-09-26T12:50:59.345Z,32.65
2018-09-26T12:52:09.287Z,33.59
2018-09-26T12:53:19.449Z,35.12
2018-09-26T12:54:29.821Z,34.64
2018-09-26T12:55:39.432Z,34.06
2018-09-26T12:56:49.599Z,34.72
2018-09-26T12:57:59.236Z,36.62
2018-09-26T12:59:09.207Z,36.62
2018-09-26T13:00:19.243Z,37.01
2018-09-26T13:01:29.554Z,36.8
2018-09-26T13:02:39.227Z,38.72
2018-09-26T13:03:49.814Z,37.93
2018-09-26T13:04:59.687Z,38.78
2018-09-26T13:06:09.401Z,39.83
2018-09-26T13:07:19.133Z,38.47
2018-09-26T13:08:29.261Z,38.95
2018-09-26T13:09:38.555Z,39.41
2018-09-26T13:10:48.426Z,39.72
2018-09-26T13:11:58.575Z,39.6
2018-09-26T13:13:08.756Z,40.27
2018-09-26T13:14:18.758Z,41.42
2018-09-26T13:15:29.255Z,41.11
2018-09-26T13:16:39.416Z,41.04
2018-09-26T13:17:49.283Z,41.97
2018-09-26T13:18:59.271Z,42.27
2018-09-26T13:20:10.016Z,41.5
2018-09-26T13:21:20.140Z,41.69
2018-09-26T13:22:30.292Z,43.32
2018-09-26T13:23:40.435Z,40.83
2018-09-26T13:24:50.590Z,41.09
2018-09-26T13:26:00.461Z,40.42
2018-09-26T13:27:10.425Z,38.98
2018-09-26T13:28:19.815Z,39.94
2018-09-26T13:29:30.465Z,40.71
2018-09-26T13:30:40.611Z,40.42
2018-09-26T13:31:50.752Z,39.85
2018-09-26T13:33:00.944Z,39.18
2018-09-26T13:34:10.847Z,39.28
2018-09-26T13:35:21.254Z,39.75
2018-09-26T13:36:31.395Z,39.65
2018-09-26T13:37:41.268Z,40.42
2018-09-26T13:38:51.596Z,39.75
2018-09-26T13:40:01.946Z,40.23
2018-09-26T13:41:12.186Z,39.94
2018-09-26T13:42:22.475Z,39.73
2018-09-26T13:43:32.927Z,39.64
2018-09-26T13:44:42.855Z,40.5
2018-09-26T13:45:53.347Z,40.41
2018-09-26T13:47:03.113Z,40.59
2018-09-26T13:48:13.356Z,41.17
2018-09-26T13:49:23.586Z,41.65
2018-09-26T13:50:33.780Z,42.13
2018-09-26T13:51:43.646Z,43.16
2018-09-26T13:52:53.511Z,43.08
2018-09-26T13:54:03.883Z,43.56
2018-09-26T13:55:14.346Z,44.33
2018-09-26T13:56:24.016Z,43.56
2018-09-26T13:57:33.970Z,42.3
2018-09-26T13:58:44.108Z,43.26
2018-09-26T13:59:53.973Z,43.44
2018-09-26T14:01:03.843Z,43.16
2018-09-26T14:02:13.900Z,43.44
2018-09-26T14:03:24.409Z,43.52
2018-09-26T14:04:34.549Z,43.43
2018-09-26T14:05:44.689Z,43.33
2018-09-26T14:06:54.561Z,42.85
2018-09-26T14:08:03.923Z,43.04
2018-09-26T14:09:14.071Z,43.23
2018-09-26T14:10:24.207Z,43.33
2018-09-26T14:11:34.534Z,43.52
2018-09-26T14:12:44.680Z,43.43
2018-09-26T14:13:54.869Z,44.17
2018-09-26T14:15:04.734Z,44.65
2018-09-26T14:16:14.326Z,44.19
2018-09-26T14:17:24.306Z,43.33
2018-09-26T14:18:34.409Z,43.23
2018-09-26T14:19:44.553Z,43.04
2018-09-26T14:20:54.152Z,42.76
2018-09-26T14:22:04.023Z,42.85
2018-09-26T14:23:14.628Z,43.04
2018-09-26T14:24:25.126Z,42.76
2018-09-26T14:25:35.313Z,42.2
2018-09-26T14:26:44.902Z,42.37
2018-09-26T14:27:54.497Z,42.3
2018-09-26T14:29:04.678Z,42.37
2018-09-26T14:30:15.077Z,42.4
2018-09-26T14:31:25.376Z,42.11
2018-09-26T14:32:35.249Z,41.63
2018-09-26T14:33:45.147Z,41.65
2018-09-26T14:34:55.860Z,40.52
2018-09-26T14:36:06.070Z,39.65
2018-09-26T14:37:16.513Z,39.77
2018-09-26T14:38:26.653Z,39.77
2018-09-26T14:39:37.363Z,39.47
2018-09-26T14:40:47.615Z,39.77
2018-09-26T14:41:57.762Z,39.39
2018-09-26T14:43:07.404Z,38.16
2018-09-26T14:44:17.729Z,38.64
2018-09-26T14:45:28.046Z,38.35
2018-09-26T14:46:38.496Z,38.14
2018-09-26T14:47:48.638Z,38.05
2018-09-26T14:48:58.230Z,38.53
2018-09-26T14:50:08.448Z,37.4
2018-09-26T14:51:18.787Z,37.4
2018-09-26T14:52:28.663Z,37.4
2018-09-26T14:53:38.555Z,37.4
2018-09-26T14:54:48.760Z,37.4
2018-09-26T14:55:58.928Z,37.59
2018-09-26T14:57:08.840Z,37.49
2018-09-26T14:58:19.544Z,36.74
2018-09-26T14:59:29.636Z,36.91
2018-09-26T15:00:39.841Z,37.2
2018-09-26T15:01:49.992Z,37.11
2018-09-26T15:02:59.584Z,36.42
2018-09-26T15:04:09.970Z,36.22